KMIC/MIC METAR and TAF weather

Enter ICAO airport designator
Station Type Date Time Source
KMIC METAR 2021/04/17 02:53 UTC NOAA

KMIC 170253Z AUTO 34005KT 10SM CLR 09/M03 A3001 RMK AO2 SLP167 T00941033 53008


Station Type Date Time Source
KMIC Decoded METAR 2021/04/17 02:53 UTC NOAA

CRYSTAL AIRPORT, MN, United States (KMIC) 45-04N 093-21W 265M
Apr 16, 2021 - 10:53 PM EDT / 2021.04.17 0253 UTC
Wind: from the NNW (340 degrees) at 6 MPH (5 KT):0
Visibility: 10 mile(s):0
Sky conditions: clear
Temperature: 48.9 F (9.4 C)
Dew Point: 26.1 F (-3.3 C)
Relative Humidity: 40%
Pressure (altimeter): 30.01 in. Hg (1016 hPa)
Pressure tendency: 0.02 inches (0.8 hPa) higher than three hours ago
ob: KMIC 170253Z AUTO 34005KT 10SM CLR 09/M03 A3001 RMK AO2 SLP167 T00941033 53008
cycle: 3

Station Type Date Time Source
KMIC TAF UTC NOAA

Error!

Example: see airport list